Time;durP1;ratioP1;P1;durP2;ratioP2;P2;SDS_P1;SDS_P2;PMS_P1;PMS_P2;Temp;Humidity;BMP_temperature;BMP_pressure;BME280_temperature;BME280_humidity;BME280_pressure;Samples;Min_cycle;Max_cycle;Signal;HPM_P1;HPM_P2
2022/08/16 16:31:16;;;;;;;;;19.25;16.00;;;;;;;;5151078;27;45401;-63
2022/08/16 16:33:43;;;;;;;;;18.25;18.25;;;;;;;;5127906;27;45325;-64
2022/08/16 16:36:10;;;;;;;;;35.75;30.75;;;;;;;;5132266;27;45487;-64
2022/08/16 16:38:35;;;;;;;;;18.25;15.75;;;;;;;;5138825;27;45445;-64
2022/08/16 16:41:04;;;;;;;;;23.75;21.50;;;;;;;;5135318;27;45453;-64
2022/08/16 16:43:30;;;;;;;;;25.50;21.75;;;;;;;;5131748;27;45268;-64
2022/08/16 16:45:55;;;;;;;;;25.25;22.50;;;;;;;;5138047;27;45367;-64
2022/08/16 16:48:20;;;;;;;;;26.00;25.25;;;;;;;;5132606;27;45337;-64
2022/08/16 16:50:46;;;;;;;;;23.00;20.75;;;;;;;;5139446;27;45323;-65
2022/08/16 16:53:12;;;;;;;;;29.25;25.25;;;;;;;;5132546;27;45247;-64
2022/08/16 16:55:38;;;;;;;;;21.75;21.75;;;;;;;;5136334;27;45366;-64
2022/08/16 17:00:48;;;;;;;;;19.75;17.25;;;;;;;;5137590;27;45401;-64
2022/08/16 17:03:13;;;;;;;;;15.25;15.25;;;;;;;;5139225;27;45212;-65
2022/08/16 17:05:38;;;;;;;;;20.00;20.00;;;;;;;;5135506;27;45465;-65
2022/08/16 17:08:05;;;;;;;;;16.25;14.00;;;;;;;;5121909;27;45125;-65
2022/08/16 17:10:30;;;;;;;;;17.67;15.67;;;;;;;;5127739;27;45414;-65
2022/08/16 17:12:56;;;;;;;;;12.67;12.67;;;;;;;;5128927;27;45310;-65
2022/08/16 17:15:23;;;;;;;;;21.00;17.00;;;;;;;;5127773;27;45467;-65
2022/08/16 17:17:48;;;;;;;;;16.33;15.00;;;;;;;;5131629;27;45953;-65
2022/08/16 17:20:14;;;;;;;;;16.00;14.00;;;;;;;;5128445;27;45377;-63
2022/08/16 17:22:39;;;;;;;;;21.50;18.25;;;;;;;;5136890;27;45491;-65
2022/08/16 17:25:05;;;;;;;;;18.00;16.50;;;;;;;;5128858;27;45366;-65
2022/08/16 17:27:31;;;;;;;;;20.25;19.75;;;;;;;;5124288;27;45510;-65
2022/08/16 17:29:56;;;;;;;;;18.75;17.25;;;;;;;;5135229;27;47546;-66
2022/08/16 17:32:21;;;;;;;;;23.25;21.00;;;;;;;;5112877;27;45382;-64
2022/08/16 17:34:49;;;;;;;;;19.75;19.75;;;;;;;;5119394;27;45607;-64
2022/08/16 17:37:16;;;;;;;;;18.00;17.75;;;;;;;;5118681;27;45393;-64
2022/08/16 17:39:41;;;;;;;;;21.75;19.00;;;;;;;;5125168;27;45640;-64
2022/08/16 17:42:08;;;;;;;;;24.00;22.75;;;;;;;;5122543;27;45402;-64
2022/08/16 17:44:34;;;;;;;;;20.25;20.25;;;;;;;;5122582;27;45328;-65
2022/08/16 17:46:59;;;;;;;;;20.25;18.50;;;;;;;;5122537;27;45217;-65
2022/08/16 17:49:25;;;;;;;;;23.75;22.25;;;;;;;;5118240;27;45407;-65
2022/08/16 17:51:50;;;;;;;;;19.25;18.25;;;;;;;;5122400;27;45220;-64
2022/08/16 17:54:16;;;;;;;;;18.75;17.75;;;;;;;;5123497;27;45378;-64
2022/08/16 17:56:41;;;;;;;;;21.75;19.50;;;;;;;;5124307;27;45346;-64
2022/08/16 17:59:06;;;;;;;;;26.00;22.75;;;;;;;;5112384;27;45570;-65
2022/08/16 18:01:32;;;;;;;;;20.00;20.00;;;;;;;;5117032;27;45166;-64
2022/08/16 18:03:57;;;;;;;;;22.75;20.00;;;;;;;;5109226;27;45223;-64
2022/08/16 18:06:22;;;;;;;;;24.75;22.25;;;;;;;;5117221;27;45507;-65
2022/08/16 18:08:47;;;;;;;;;20.50;18.75;;;;;;;;5112311;27;46135;-64
2022/08/16 18:11:16;;;;;;;;;20.25;19.00;;;;;;;;5123020;27;45283;-65
2022/08/16 18:13:42;;;;;;;;;19.25;17.50;;;;;;;;5116369;27;45381;-65
2022/08/16 18:16:07;;;;;;;;;18.50;15.75;;;;;;;;5118232;27;45397;-65
2022/08/16 18:18:32;;;;;;;;;14.00;14.00;;;;;;;;5118796;27;45316;-65
2022/08/16 18:23:41;;;;;;;;;19.75;18.00;;;;;;;;5130524;27;45477;-66
2022/08/16 18:26:07;;;;;;;;;18.75;15.75;;;;;;;;5118967;27;45605;-66
2022/08/16 18:28:37;;;;;;;;;19.00;14.33;;;;;;;;5122433;27;46117;-66
2022/08/16 18:31:03;;;;;;;;;14.00;12.75;;;;;;;;5122299;27;45402;-66
2022/08/16 18:33:28;;;;;;;;;17.25;17.25;;;;;;;;5117011;27;45363;-65
2022/08/16 18:35:53;;;;;;;;;20.67;18.00;;;;;;;;5124336;27;45468;-67
2022/08/16 18:38:19;;;;;;;;;14.33;12.33;;;;;;;;5117187;27;46119;-65
2022/08/16 18:40:44;;;;;;;;;17.00;16.00;;;;;;;;5122407;27;45357;-66
2022/08/16 18:43:15;;;;;;;;;17.25;15.25;;;;;;;;5119149;27;45392;-65
2022/08/16 18:45:42;;;;;;;;;17.25;15.25;;;;;;;;5117720;27;45473;-67
2022/08/16 18:48:08;;;;;;;;;18.75;15.25;;;;;;;;5121988;27;46789;-66
2022/08/16 18:50:34;;;;;;;;;18.75;16.75;;;;;;;;5123814;27;45377;-66
2022/08/16 18:53:00;;;;;;;;;16.25;16.25;;;;;;;;5111227;27;45440;-66
2022/08/16 18:55:27;;;;;;;;;17.25;17.25;;;;;;;;5123583;27;45578;-66
2022/08/16 18:57:52;;;;;;;;;19.75;19.00;;;;;;;;5123140;27;47882;-66
2022/08/16 19:00:20;;;;;;;;;15.25;14.50;;;;;;;;5114325;27;45266;-66
2022/08/16 19:02:45;;;;;;;;;20.75;18.75;;;;;;;;5115270;27;45219;-66
2022/08/16 19:05:12;;;;;;;;;21.25;19.75;;;;;;;;5116563;27;45235;-66
2022/08/16 19:07:38;;;;;;;;;20.50;19.25;;;;;;;;5117367;27;45404;-66
2022/08/16 19:10:04;;;;;;;;;21.00;20.00;;;;;;;;5118468;27;45418;-66
2022/08/16 19:12:29;;;;;;;;;24.75;24.75;;;;;;;;5118625;27;45414;-66
2022/08/16 19:14:55;;;;;;;;;23.25;21.25;;;;;;;;5119780;27;45259;-66
2022/08/16 19:17:21;;;;;;;;;19.25;18.75;;;;;;;;5114654;27;48498;-66
2022/08/16 19:19:46;;;;;;;;;17.50;17.25;;;;;;;;5120801;27;45869;-66
2022/08/16 19:22:11;;;;;;;;;19.75;19.50;;;;;;;;5122542;27;45306;-66
2022/08/16 19:24:36;;;;;;;;;21.00;20.00;;;;;;;;5121431;27;45282;-66
2022/08/16 19:27:01;;;;;;;;;18.50;17.50;;;;;;;;5117613;27;46332;-66
2022/08/16 19:29:27;;;;;;;;;21.75;21.75;;;;;;;;5115791;27;45288;-66
2022/08/16 19:31:52;;;;;;;;;23.25;20.75;;;;;;;;5118796;27;45708;-66
2022/08/16 19:34:17;;;;;;;;;17.00;17.00;;;;;;;;5112808;27;45318;-66
2022/08/16 19:36:42;;;;;;;;;21.00;21.00;;;;;;;;5118890;27;46609;-66
2022/08/16 19:39:12;;;;;;;;;23.00;21.50;;;;;;;;5114913;27;45560;-66
2022/08/16 19:41:40;;;;;;;;;19.25;17.75;;;;;;;;5118825;27;45464;-66
2022/08/16 19:44:06;;;;;;;;;22.50;22.25;;;;;;;;5118362;27;45407;-65
2022/08/16 19:46:32;;;;;;;;;20.50;19.00;;;;;;;;5122221;27;47627;-65
2022/08/16 19:48:58;;;;;;;;;21.50;21.50;;;;;;;;5115879;27;45361;-66
2022/08/16 19:51:23;;;;;;;;;23.75;21.50;;;;;;;;5118467;27;45537;-65
2022/08/16 19:53:48;;;;;;;;;23.00;19.00;;;;;;;;5106247;27;45366;-65
2022/08/16 19:56:13;;;;;;;;;27.00;23.25;;;;;;;;5114664;27;46967;-66
2022/08/16 19:58:38;;;;;;;;;24.25;19.00;;;;;;;;5109116;27;45343;-66
2022/08/16 20:01:04;;;;;;;;;26.25;24.75;;;;;;;;5118279;27;45288;-66
2022/08/16 20:03:29;;;;;;;;;24.00;22.50;;;;;;;;5114183;27;45510;-66
2022/08/16 20:05:55;;;;;;;;;26.00;24.25;;;;;;;;5113089;27;46694;-66
2022/08/16 20:08:21;;;;;;;;;26.00;21.75;;;;;;;;5117196;27;45229;-66
2022/08/16 20:10:46;;;;;;;;;27.25;27.00;;;;;;;;5117365;27;45271;-66
2022/08/16 20:13:14;;;;;;;;;20.50;19.50;;;;;;;;5123508;27;45262;-66
2022/08/16 20:15:40;;;;;;;;;27.50;25.50;;;;;;;;5115087;27;45464;-66
2022/08/16 20:18:05;;;;;;;;;31.50;28.00;;;;;;;;5120980;27;45310;-65
2022/08/16 20:20:31;;;;;;;;;23.50;22.00;;;;;;;;5119083;27;45478;-65
2022/08/16 20:22:56;;;;;;;;;28.25;26.75;;;;;;;;5123937;27;45408;-66
2022/08/16 20:25:24;;;;;;;;;24.25;24.25;;;;;;;;5119689;27;46319;-65
2022/08/16 20:27:50;;;;;;;;;28.50;26.00;;;;;;;;5111737;27;45310;-65
2022/08/16 20:30:15;;;;;;;;;30.75;26.50;;;;;;;;5120573;27;45373;-65
2022/08/16 20:32:42;;;;;;;;;26.50;25.00;;;;;;;;5121345;27;45456;-65
2022/08/16 20:35:10;;;;;;;;;22.50;20.50;;;;;;;;5121279;27;45402;-65
2022/08/16 20:37:36;;;;;;;;;27.50;25.75;;;;;;;;5114188;27;45351;-65
2022/08/16 20:40:04;;;;;;;;;25.25;25.25;;;;;;;;5116127;27;45260;-65
2022/08/16 20:42:29;;;;;;;;;25.25;25.00;;;;;;;;5122887;27;45676;-65
2022/08/16 20:44:54;;;;;;;;;32.25;28.50;;;;;;;;5115162;27;46850;-66
2022/08/16 20:47:23;;;;;;;;;23.75;23.25;;;;;;;;5121459;27;45416;-65
2022/08/16 20:49:48;;;;;;;;;27.25;26.00;;;;;;;;5120710;27;45243;-65
2022/08/16 20:52:15;;;;;;;;;27.25;24.75;;;;;;;;5122964;27;45416;-65
2022/08/16 20:54:41;;;;;;;;;30.00;28.75;;;;;;;;5120817;27;45507;-65
2022/08/16 20:57:06;;;;;;;;;25.75;23.00;;;;;;;;5121739;27;45456;-66
2022/08/16 20:59:31;;;;;;;;;31.00;27.50;;;;;;;;5112630;27;45422;-65
2022/08/16 21:01:57;;;;;;;;;29.25;26.50;;;;;;;;5123549;27;45269;-65
2022/08/16 21:04:24;;;;;;;;;22.75;21.75;;;;;;;;5113203;27;46627;-66
2022/08/16 21:06:52;;;;;;;;;24.25;22.75;;;;;;;;5121479;27;45473;-66
2022/08/16 21:09:17;;;;;;;;;27.25;25.75;;;;;;;;5113574;27;45193;-65
2022/08/16 21:11:43;;;;;;;;;30.50;28.25;;;;;;;;5122727;27;45664;-65
2022/08/16 21:14:10;;;;;;;;;28.75;28.25;;;;;;;;5115500;27;45367;-65
2022/08/16 21:16:36;;;;;;;;;27.00;26.75;;;;;;;;5122573;27;45258;-65
2022/08/16 21:19:01;;;;;;;;;22.00;21.50;;;;;;;;5117739;27;45287;-66
2022/08/16 21:21:26;;;;;;;;;30.25;26.50;;;;;;;;5124914;27;45794;-66
2022/08/16 21:23:51;;;;;;;;;33.50;29.50;;;;;;;;5121663;27;46500;-66
2022/08/16 21:26:17;;;;;;;;;28.75;24.00;;;;;;;;5125031;27;45279;-66
2022/08/16 21:28:42;;;;;;;;;25.00;24.00;;;;;;;;5124547;27;45464;-66
2022/08/16 21:31:07;;;;;;;;;31.00;28.00;;;;;;;;5115608;27;45628;-66
2022/08/16 21:33:32;;;;;;;;;26.50;26.50;;;;;;;;5113543;27;46459;-66
2022/08/16 21:35:58;;;;;;;;;29.25;26.50;;;;;;;;5124543;27;45498;-65
2022/08/16 21:38:23;;;;;;;;;29.50;26.25;;;;;;;;5114970;27;45336;-66
2022/08/16 21:40:48;;;;;;;;;30.25;25.75;;;;;;;;5122668;27;46107;-66
2022/08/16 21:43:15;;;;;;;;;24.50;23.25;;;;;;;;5114592;27;47102;-66
2022/08/16 21:45:42;;;;;;;;;25.50;25.25;;;;;;;;5124214;27;45383;-66
2022/08/16 21:48:07;;;;;;;;;28.75;26.50;;;;;;;;5117257;27;45296;-66
2022/08/16 21:50:35;;;;;;;;;24.00;22.50;;;;;;;;5125727;27;45621;-66
2022/08/16 21:53:21;;;;;;;;;29.25;26.25;;;;;;;;5120305;27;46505;-66
2022/08/16 21:55:50;;;;;;;;;31.75;29.75;;;;;;;;5124868;27;45377;-66
2022/08/16 21:58:16;;;;;;;;;28.25;25.75;;;;;;;;5124609;27;45326;-65
2022/08/16 22:00:41;;;;;;;;;32.00;28.75;;;;;;;;5125330;27;45303;-66
2022/08/16 22:03:08;;;;;;;;;29.25;27.25;;;;;;;;5119898;27;46198;-66
2022/08/16 22:05:35;;;;;;;;;34.25;31.25;;;;;;;;5115449;27;45456;-65
2022/08/16 22:08:00;;;;;;;;;31.75;29.75;;;;;;;;5122539;27;45342;-66
2022/08/16 22:10:25;;;;;;;;;26.00;26.00;;;;;;;;5116489;27;45363;-67
2022/08/16 22:12:51;;;;;;;;;36.25;33.25;;;;;;;;5125422;27;45513;-66
2022/08/16 22:15:23;;;;;;;;;31.50;30.25;;;;;;;;5116804;27;45276;-66
2022/08/16 22:17:48;;;;;;;;;30.00;27.75;;;;;;;;5117731;27;45437;-66
2022/08/16 22:20:13;;;;;;;;;35.75;32.75;;;;;;;;5114541;27;45511;-65
2022/08/16 22:22:38;;;;;;;;;27.25;24.75;;;;;;;;5119880;27;45344;-66
2022/08/16 22:25:04;;;;;;;;;31.75;27.00;;;;;;;;5117460;27;45225;-66
2022/08/16 22:27:29;;;;;;;;;30.00;25.00;;;;;;;;5121385;27;45492;-66
2022/08/16 22:29:57;;;;;;;;;25.50;23.75;;;;;;;;5121185;27;45453;-66
2022/08/16 22:32:22;;;;;;;;;24.25;22.00;;;;;;;;5122109;27;45610;-66
2022/08/16 22:34:47;;;;;;;;;26.25;23.25;;;;;;;;5124013;27;45361;-66
2022/08/16 22:37:13;;;;;;;;;14.50;11.75;;;;;;;;5120649;27;45310;-66
2022/08/16 22:39:38;;;;;;;;;22.50;22.50;;;;;;;;5112588;27;45472;-66
2022/08/16 22:42:08;;;;;;;;;27.50;20.50;;;;;;;;5119501;27;46481;-66
2022/08/16 22:44:34;;;;;;;;;26.50;21.75;;;;;;;;5123457;27;45721;-65
2022/08/16 22:46:59;;;;;;;;;19.50;19.50;;;;;;;;5118705;27;45479;-66
2022/08/16 22:49:25;;;;;;;;;21.00;20.00;;;;;;;;5119540;27;45446;-65
2022/08/16 22:51:51;;;;;;;;;21.75;20.00;;;;;;;;5121411;27;46506;-66
2022/08/16 22:54:16;;;;;;;;;21.75;18.00;;;;;;;;5121666;27;45447;-65
2022/08/16 22:56:43;;;;;;;;;18.50;17.75;;;;;;;;5123452;27;45312;-65
2022/08/16 22:59:08;;;;;;;;;19.75;19.75;;;;;;;;5124649;27;45323;-65
2022/08/16 23:01:33;;;;;;;;;20.50;20.50;;;;;;;;5122141;27;45401;-65
2022/08/16 23:03:58;;;;;;;;;19.50;19.50;;;;;;;;5114014;27;45400;-65
2022/08/16 23:06:24;;;;;;;;;17.50;17.50;;;;;;;;5120460;27;45394;-66
2022/08/16 23:08:49;;;;;;;;;20.25;20.00;;;;;;;;5116798;27;45291;-66
2022/08/16 23:11:22;;;;;;;;;24.25;21.50;;;;;;;;5120670;27;46036;-66
2022/08/16 23:13:52;;;;;;;;;22.75;22.00;;;;;;;;5115839;27;45405;-66
2022/08/16 23:16:19;;;;;;;;;19.33;18.33;;;;;;;;5115953;27;45451;-66
2022/08/16 23:18:45;;;;;;;;;21.33;19.67;;;;;;;;5117476;27;45637;-66
2022/08/16 23:21:10;;;;;;;;;18.50;16.25;;;;;;;;5119584;27;46501;-66
2022/08/16 23:23:36;;;;;;;;;16.00;14.67;;;;;;;;5114391;27;45395;-66
2022/08/16 23:26:03;;;;;;;;;18.00;18.00;;;;;;;;5122485;27;46114;-66
2022/08/16 23:28:29;;;;;;;;;20.33;18.00;;;;;;;;5117842;27;45516;-66
2022/08/16 23:30:56;;;;;;;;;17.00;17.00;;;;;;;;5122261;27;47306;-66
2022/08/16 23:33:21;;;;;;;;;18.50;18.00;;;;;;;;5122128;27;45248;-66
2022/08/16 23:35:48;;;;;;;;;16.00;15.75;;;;;;;;5123591;27;45561;-66
2022/08/16 23:38:14;;;;;;;;;17.25;15.00;;;;;;;;5111503;27;45318;-66
2022/08/16 23:40:39;;;;;;;;;16.25;14.25;;;;;;;;5117216;27;45650;-66
2022/08/16 23:43:09;;;;;;;;;17.25;14.75;;;;;;;;5112426;27;45416;-66
2022/08/16 23:45:34;;;;;;;;;19.50;15.75;;;;;;;;5115842;27;45448;-66
2022/08/16 23:48:00;;;;;;;;;17.50;17.50;;;;;;;;5114128;27;45584;-66
2022/08/16 23:50:26;;;;;;;;;17.50;17.50;;;;;;;;5122977;27;45321;-66
2022/08/16 23:53:03;;;;;;;;;14.25;14.25;;;;;;;;5117013;27;45247;-66
2022/08/16 23:55:29;;;;;;;;;14.75;12.75;;;;;;;;5122845;27;45280;-66
2022/08/16 23:57:55;;;;;;;;;17.33;17.33;;;;;;;;5124591;27;45439;-66
